createdAt,value
2022-08-22T00:03:08.735Z,5.47
2022-08-22T00:04:21.501Z,5.03
2022-08-22T00:14:49.900Z,6.20
2022-08-22T00:25:03.026Z,7.20
2022-08-22T00:35:19.460Z,7.60
2022-08-22T00:45:45.607Z,8.60
2022-08-22T00:55:59.596Z,7.40
2022-08-22T01:06:07.172Z,8.60
2022-08-22T01:16:14.561Z,8.17
2022-08-22T01:26:49.362Z,8.63
2022-08-22T01:37:12.648Z,7.53
2022-08-22T01:47:23.389Z,7.27
2022-08-22T01:57:26.572Z,8.20
2022-08-22T02:07:34.355Z,9.63
2022-08-22T02:17:48.727Z,8.23
2022-08-22T02:28:10.076Z,8.23
2022-08-22T02:38:40.798Z,7.37
2022-08-22T02:48:54.596Z,8.33
2022-08-22T02:59:12.310Z,10.20
2022-08-22T03:09:13.785Z,7.57
2022-08-22T03:19:45.879Z,11.43
2022-08-22T03:29:53.823Z,9.27
2022-08-22T03:40:19.794Z,10.17
2022-08-22T03:50:24.193Z,8.33
2022-08-22T04:01:01.185Z,8.27
2022-08-22T04:11:08.648Z,11.00
2022-08-22T04:21:29.749Z,9.83
2022-08-22T04:31:36.006Z,12.20
2022-08-22T04:41:46.582Z,14.00
2022-08-22T04:52:18.061Z,11.03
2022-08-22T05:02:24.868Z,10.55
2022-08-22T05:12:35.664Z,12.57
2022-08-22T05:22:43.368Z,9.17
2022-08-22T05:33:08.025Z,8.37
2022-08-22T05:43:12.161Z,8.90
2022-08-22T05:53:21.902Z,8.15
2022-08-22T06:03:41.745Z,7.10
2022-08-22T06:13:54.851Z,9.30
2022-08-22T06:23:59.140Z,9.83
2022-08-22T06:34:16.071Z,9.20
2022-08-22T06:44:21.923Z,11.25
2022-08-22T06:54:30.353Z,11.87
2022-08-22T07:04:34.150Z,12.17
2022-08-22T07:14:44.257Z,12.63
2022-08-22T07:24:51.115Z,12.67
2022-08-22T07:34:52.572Z,12.68
2022-08-22T07:45:14.708Z,13.10
2022-08-22T07:55:22.865Z,11.80
2022-08-22T08:05:27.562Z,11.33
2022-08-22T08:15:31.811Z,9.47
2022-08-22T08:25:48.785Z,8.43
2022-08-22T08:36:09.481Z,9.23
2022-08-22T08:46:19.905Z,11.63
2022-08-22T08:56:55.182Z,12.67
2022-08-22T09:07:16.890Z,8.27
2022-08-22T09:17:36.166Z,8.98
2022-08-22T09:27:53.413Z,8.97
2022-08-22T09:38:09.273Z,7.87
2022-08-22T09:48:30.380Z,5.53
2022-08-22T09:58:47.356Z,6.90
2022-08-22T10:09:08.835Z,5.07
2022-08-22T10:19:23.086Z,6.97
2022-08-22T10:29:40.069Z,6.50
2022-08-22T10:40:07.133Z,5.40
2022-08-22T10:50:28.984Z,5.47
2022-08-22T11:00:53.006Z,4.70
2022-08-22T11:11:20.731Z,6.97
2022-08-22T11:21:51.159Z,5.73
2022-08-22T11:31:55.528Z,4.97
2022-08-22T11:42:29.611Z,4.90
2022-08-22T11:53:08.005Z,4.47
2022-08-22T12:03:43.275Z,5.07
2022-08-22T12:13:52.171Z,3.90
2022-08-22T12:25:05.128Z,6.93
2022-08-22T12:35:32.662Z,8.03
2022-08-22T12:45:41.810Z,7.47
2022-08-22T12:56:06.216Z,4.63
2022-08-22T13:06:33.558Z,5.47
2022-08-22T13:16:49.090Z,6.80
2022-08-22T13:26:59.759Z,5.87
2022-08-22T13:37:04.204Z,4.00
2022-08-22T13:47:18.340Z,4.13
2022-08-22T13:57:27.943Z,3.40
2022-08-22T14:07:53.082Z,4.37
2022-08-22T14:18:16.821Z,4.00
2022-08-22T14:28:33.220Z,3.65
2022-08-22T14:38:47.062Z,3.47
2022-08-22T14:49:26.896Z,4.70
2022-08-22T14:59:33.628Z,4.20
2022-08-22T15:09:41.637Z,3.70
2022-08-22T15:19:47.061Z,4.60
2022-08-22T15:29:55.269Z,3.73
2022-08-22T15:39:58.900Z,4.40
2022-08-22T15:50:15.251Z,6.40
2022-08-22T16:00:29.129Z,4.80
2022-08-22T16:10:41.380Z,4.20
2022-08-22T16:20:51.657Z,3.67
2022-08-22T16:30:55.658Z,3.80
2022-08-22T16:40:57.377Z,4.10
2022-08-22T16:51:15.042Z,5.73
2022-08-22T17:01:51.983Z,6.38
2022-08-22T17:12:18.028Z,4.90
2022-08-22T17:23:02.862Z,4.97
2022-08-22T17:33:19.887Z,4.73
2022-08-22T17:43:48.480Z,4.10
2022-08-22T17:53:55.775Z,5.93
2022-08-22T18:04:01.341Z,6.23
2022-08-22T18:14:21.002Z,5.50
2022-08-22T18:24:30.144Z,5.43
2022-08-22T18:35:02.559Z,10.87
2022-08-22T18:45:04.863Z,6.10
2022-08-22T18:55:06.326Z,10.23
2022-08-22T19:05:45.143Z,7.03
2022-08-22T19:16:12.795Z,7.43
2022-08-22T19:26:29.056Z,6.37
2022-08-22T19:36:33.154Z,7.18
2022-08-22T19:46:37.996Z,6.20
2022-08-22T19:57:04.974Z,5.43
2022-08-22T20:07:43.815Z,4.60
2022-08-22T20:18:11.522Z,6.80
2022-08-22T20:28:09.623Z,5.20
2022-08-22T20:38:15.623Z,3.93
2022-08-22T20:48:17.339Z,6.00
2022-08-22T20:58:22.899Z,4.67
2022-08-22T21:08:26.515Z,6.13
2022-08-22T21:18:35.053Z,7.15
2022-08-22T21:28:41.637Z,3.73
2022-08-22T21:39:01.578Z,6.97
2022-08-22T21:49:05.379Z,6.23
2022-08-22T21:59:40.125Z,6.60
2022-08-22T22:09:54.475Z,5.55
2022-08-22T22:19:56.549Z,5.73
2022-08-22T22:29:58.226Z,5.90
2022-08-22T22:40:06.977Z,6.97
2022-08-22T22:50:09.134Z,6.03
2022-08-22T23:00:12.293Z,5.38
2022-08-22T23:10:15.236Z,8.37
2022-08-22T23:20:18.378Z,7.03
2022-08-22T23:30:20.829Z,7.97
2022-08-22T23:40:22.464Z,6.50
2022-08-22T23:50:24.042Z,4.78
